createdAt,value
2023-05-20T00:00:23.123Z,2.83
2023-05-20T00:02:51.151Z,3.50
2023-05-20T00:05:20.897Z,3.97
2023-05-20T00:07:48.861Z,3.50
2023-05-20T00:10:16.959Z,3.40
2023-05-20T00:12:44.968Z,3.43
2023-05-20T00:15:13.028Z,3.13
2023-05-20T00:17:41.169Z,3.93
2023-05-20T00:20:09.759Z,2.83
2023-05-20T00:22:39.027Z,3.57
2023-05-20T00:25:27.356Z,3.77
2023-05-20T00:27:55.328Z,4.60
2023-05-20T00:30:23.344Z,4.23
2023-05-20T00:32:51.393Z,3.77
2023-05-20T00:35:19.387Z,3.57
2023-05-20T00:37:48.716Z,3.70
2023-05-20T00:40:16.949Z,4.20
2023-05-20T00:42:44.970Z,4.40
2023-05-20T00:45:13.134Z,4.37
2023-05-20T00:47:41.116Z,5.33
2023-05-20T00:50:11.261Z,4.20
2023-05-20T00:52:41.500Z,3.87
2023-05-20T00:55:11.151Z,4.47
2023-05-20T00:57:39.508Z,5.13
2023-05-20T01:00:10.407Z,4.00
2023-05-20T01:02:38.748Z,3.37
2023-05-20T01:05:07.846Z,4.00
2023-05-20T01:07:35.936Z,4.40
2023-05-20T01:10:04.132Z,4.17
2023-05-20T01:12:38.636Z,4.17
2023-05-20T01:15:10.052Z,4.00
2023-05-20T01:17:40.637Z,4.30
2023-05-20T01:20:10.996Z,4.50
2023-05-20T01:22:40.830Z,3.90
2023-05-20T01:25:10.754Z,3.50
2023-05-20T01:27:38.714Z,3.90
2023-05-20T01:30:09.854Z,4.70
2023-05-20T01:32:41.129Z,3.77
2023-05-20T01:35:10.085Z,4.20
2023-05-20T01:37:42.335Z,4.97
2023-05-20T01:40:12.024Z,4.33
2023-05-20T01:42:40.880Z,4.77
2023-05-20T01:45:09.672Z,5.13
2023-05-20T01:47:39.019Z,4.83
2023-05-20T01:50:08.376Z,4.57
2023-05-20T01:52:57.197Z,4.50
2023-05-20T01:55:26.244Z,5.40
2023-05-20T01:57:54.211Z,4.60
2023-05-20T02:00:22.622Z,4.77
2023-05-20T02:02:50.666Z,4.93
2023-05-20T02:05:18.747Z,4.70
2023-05-20T02:07:46.710Z,5.23
2023-05-20T02:10:16.190Z,5.53
2023-05-20T02:12:44.211Z,6.63
2023-05-20T02:15:12.484Z,6.27
2023-05-20T02:17:43.574Z,5.13
2023-05-20T02:20:13.781Z,4.77
2023-05-20T02:22:41.735Z,4.83
2023-05-20T02:25:11.639Z,5.53
2023-05-20T02:27:40.953Z,4.97
2023-05-20T02:30:10.431Z,4.47
2023-05-20T02:32:38.454Z,4.80
2023-05-20T02:35:07.016Z,4.40
2023-05-20T02:37:35.391Z,4.07
2023-05-20T02:40:03.372Z,4.47
2023-05-20T02:42:31.270Z,4.20
2023-05-20T02:45:00.627Z,4.47
2023-05-20T02:47:28.801Z,4.73
2023-05-20T02:49:56.901Z,4.70
2023-05-20T02:52:24.816Z,4.97
2023-05-20T02:54:52.917Z,4.63
2023-05-20T02:57:21.148Z,4.47
2023-05-20T02:59:49.106Z,4.83
2023-05-20T03:02:18.433Z,5.03
2023-05-20T03:04:47.360Z,4.60
2023-05-20T03:07:19.444Z,4.70
2023-05-20T03:09:47.507Z,4.70
2023-05-20T03:12:15.731Z,4.67
2023-05-20T03:14:43.759Z,4.80
2023-05-20T03:17:12.393Z,4.50
2023-05-20T03:19:42.786Z,5.03
2023-05-20T03:22:10.988Z,4.77
2023-05-20T03:24:39.016Z,4.77
2023-05-20T03:27:07.295Z,4.67
2023-05-20T03:29:36.209Z,4.63
2023-05-20T03:32:04.150Z,5.10
2023-05-20T03:34:32.151Z,4.47
2023-05-20T03:37:02.589Z,5.47
2023-05-20T03:39:30.836Z,5.43
2023-05-20T03:41:58.834Z,4.80
2023-05-20T03:44:27.100Z,5.70
2023-05-20T03:46:55.553Z,5.43
2023-05-20T03:49:23.770Z,5.20
2023-05-20T03:52:12.359Z,5.87
2023-05-20T03:54:40.319Z,5.50
2023-05-20T03:57:10.450Z,4.90
2023-05-20T03:59:38.645Z,4.73
2023-05-20T04:02:07.212Z,5.27
2023-05-20T04:04:35.161Z,4.60
2023-05-20T04:07:04.920Z,4.73
2023-05-20T04:09:34.516Z,4.60
2023-05-20T04:12:03.209Z,5.10
2023-05-20T04:14:32.637Z,5.00
2023-05-20T04:17:02.410Z,5.33
2023-05-20T04:19:30.446Z,5.30
2023-05-20T04:21:58.573Z,4.83
2023-05-20T04:24:26.887Z,5.70
2023-05-20T04:26:56.348Z,4.83
2023-05-20T04:29:24.650Z,5.03
2023-05-20T04:31:53.484Z,5.10
2023-05-20T04:34:26.649Z,5.13
2023-05-20T04:36:54.601Z,5.40
2023-05-20T04:39:22.730Z,5.13
2023-05-20T04:42:12.536Z,4.67
2023-05-20T04:44:42.481Z,4.77
2023-05-20T04:47:10.558Z,4.97
2023-05-20T04:49:39.554Z,4.77
2023-05-20T04:52:08.428Z,4.73
2023-05-20T04:54:36.331Z,5.20
2023-05-20T04:57:04.963Z,5.30
2023-05-20T04:59:32.898Z,5.10
2023-05-20T05:02:02.232Z,5.47
2023-05-20T05:04:30.268Z,4.30
2023-05-20T05:06:58.215Z,4.70
2023-05-20T05:09:26.311Z,4.77
2023-05-20T05:11:54.670Z,4.63
2023-05-20T05:14:23.604Z,4.50
2023-05-20T05:16:54.872Z,4.90
2023-05-20T05:19:25.140Z,4.77
2023-05-20T05:21:53.500Z,4.90
2023-05-20T05:24:21.498Z,4.33
2023-05-20T05:26:49.503Z,5.17
2023-05-20T05:29:17.457Z,5.27
2023-05-20T05:31:45.724Z,4.83
2023-05-20T05:34:13.702Z,4.63
2023-05-20T05:36:42.949Z,4.60
2023-05-20T05:39:10.910Z,4.60
2023-05-20T05:41:39.012Z,4.80
2023-05-20T05:44:07.645Z,4.20
2023-05-20T05:46:35.980Z,4.60
2023-05-20T05:49:03.962Z,4.20
2023-05-20T05:51:31.893Z,4.63
2023-05-20T05:54:01.255Z,4.60
2023-05-20T05:56:48.362Z,4.30
2023-05-20T05:59:36.297Z,4.50
2023-05-20T06:02:04.640Z,4.50
2023-05-20T06:04:32.787Z,4.33
2023-05-20T06:07:00.811Z,4.80
2023-05-20T06:09:30.114Z,4.13
2023-05-20T06:11:58.634Z,4.00
2023-05-20T06:14:27.094Z,4.60
2023-05-20T06:16:55.182Z,4.33
2023-05-20T06:19:23.632Z,4.50
2023-05-20T06:21:51.735Z,3.53
2023-05-20T06:24:21.419Z,4.50
2023-05-20T06:26:52.323Z,4.20
2023-05-20T06:29:20.878Z,4.10
2023-05-20T06:31:48.830Z,3.83
2023-05-20T06:34:16.828Z,3.90
2023-05-20T06:36:44.742Z,4.10
2023-05-20T06:39:13.111Z,3.87
2023-05-20T06:41:44.372Z,3.73
2023-05-20T06:44:14.925Z,4.20
2023-05-20T06:46:55.308Z,3.63
2023-05-20T06:49:24.713Z,3.77
2023-05-20T06:51:52.806Z,3.87
2023-05-20T06:54:39.366Z,3.57
2023-05-20T06:57:07.848Z,3.60
2023-05-20T06:59:37.896Z,3.40
2023-05-20T07:02:26.688Z,3.73
2023-05-20T07:04:55.066Z,3.50
2023-05-20T07:07:23.041Z,3.07
2023-05-20T07:09:51.038Z,3.10
2023-05-20T07:12:18.952Z,3.40
2023-05-20T07:14:48.281Z,3.80
2023-05-20T07:17:16.558Z,3.30
2023-05-20T07:19:46.196Z,3.33
2023-05-20T07:22:14.215Z,3.20
2023-05-20T07:24:52.333Z,2.80
2023-05-20T07:27:20.211Z,3.03
2023-05-20T07:29:49.472Z,2.90
2023-05-20T07:32:17.856Z,3.13
2023-05-20T07:34:46.258Z,2.90
2023-05-20T07:37:14.824Z,2.97
2023-05-20T07:39:43.794Z,3.13
2023-05-20T07:42:11.776Z,3.30
2023-05-20T07:44:43.317Z,3.03
2023-05-20T07:47:12.641Z,3.20
2023-05-20T07:49:40.854Z,2.70
2023-05-20T07:52:08.940Z,3.40
2023-05-20T07:54:37.596Z,2.83
2023-05-20T07:57:06.009Z,2.87
2023-05-20T07:59:34.368Z,3.20
2023-05-20T08:02:02.872Z,3.43
2023-05-20T08:04:32.524Z,2.67
2023-05-20T08:07:00.770Z,3.20
2023-05-20T08:09:40.199Z,3.13
2023-05-20T08:12:08.840Z,3.03
2023-05-20T08:14:36.804Z,2.73
2023-05-20T08:17:05.007Z,3.30
2023-05-20T08:19:34.376Z,3.00
2023-05-20T08:22:02.455Z,2.73
2023-05-20T08:24:30.917Z,3.23
2023-05-20T08:26:59.012Z,2.57
2023-05-20T08:29:28.367Z,2.67
2023-05-20T08:31:56.327Z,3.20
2023-05-20T08:34:25.755Z,3.57
2023-05-20T08:36:55.057Z,2.90
2023-05-20T08:39:23.001Z,2.60
2023-05-20T08:41:51.901Z,2.63
2023-05-20T08:44:20.512Z,2.93
2023-05-20T08:46:49.792Z,3.57
2023-05-20T08:49:17.859Z,2.87
2023-05-20T08:51:46.229Z,2.90
2023-05-20T08:54:16.745Z,2.83
2023-05-20T08:57:04.145Z,3.20
2023-05-20T08:59:32.191Z,2.90
2023-05-20T09:02:00.215Z,3.10
2023-05-20T09:04:28.141Z,3.20
2023-05-20T09:06:56.593Z,3.40
2023-05-20T09:09:25.873Z,3.00
2023-05-20T09:11:53.808Z,3.17
2023-05-20T09:14:21.725Z,2.60
2023-05-20T09:16:50.575Z,3.27
2023-05-20T09:19:18.565Z,3.10
2023-05-20T09:22:06.816Z,2.50
2023-05-20T09:24:36.345Z,2.70
2023-05-20T09:27:04.732Z,2.83
2023-05-20T09:29:34.706Z,2.60
2023-05-20T09:32:05.636Z,2.77
2023-05-20T09:34:33.744Z,3.07
2023-05-20T09:42:53.889Z,2.73
2023-05-20T09:45:23.169Z,3.10
2023-05-20T09:47:53.029Z,2.80
2023-05-20T09:50:22.224Z,2.90
2023-05-20T09:52:51.297Z,2.80
2023-05-20T09:55:22.491Z,3.07
2023-05-20T09:57:50.608Z,2.90
2023-05-20T10:00:19.568Z,3.27
2023-05-20T10:02:51.593Z,2.70
2023-05-20T10:05:22.456Z,3.17
2023-05-20T10:08:13.605Z,3.30
2023-05-20T10:10:49.404Z,2.90
2023-05-20T10:13:33.013Z,2.70
2023-05-20T10:16:07.459Z,3.07
2023-05-20T10:18:47.738Z,2.67
2023-05-20T10:21:22.297Z,2.77
2023-05-20T10:23:50.261Z,2.57
2023-05-20T10:26:20.552Z,2.50
2023-05-20T10:28:48.515Z,2.77
2023-05-20T10:31:18.113Z,2.23
2023-05-20T10:33:47.153Z,2.67
2023-05-20T10:36:26.232Z,2.53
2023-05-20T10:38:55.115Z,2.83
2023-05-20T10:41:26.478Z,2.40
2023-05-20T10:44:04.614Z,2.60
2023-05-20T10:46:48.701Z,2.90
2023-05-20T10:49:25.158Z,2.80
2023-05-20T10:51:55.600Z,2.90
2023-05-20T10:54:24.128Z,2.60
2023-05-20T10:56:54.927Z,2.43
2023-05-20T10:59:23.153Z,3.00
2023-05-20T11:01:51.367Z,3.10
2023-05-20T11:04:20.442Z,2.97
2023-05-20T11:06:52.279Z,2.90
2023-05-20T11:09:20.239Z,3.00
2023-05-20T11:11:48.341Z,2.63
2023-05-20T11:14:19.510Z,3.00
2023-05-20T11:16:48.608Z,2.80
2023-05-20T11:19:17.349Z,3.00
2023-05-20T11:21:45.676Z,2.70
2023-05-20T11:24:13.894Z,2.90
2023-05-20T11:26:42.183Z,2.90
2023-05-20T11:29:10.196Z,2.40
2023-05-20T11:31:40.365Z,3.03
2023-05-20T11:34:08.292Z,2.80
2023-05-20T11:36:41.367Z,2.73
2023-05-20T11:39:11.323Z,3.13
2023-05-20T11:41:39.813Z,3.10
2023-05-20T11:44:12.031Z,3.17
2023-05-20T11:47:03.325Z,2.60
2023-05-20T11:49:31.500Z,2.97
2023-05-20T11:51:59.523Z,2.70
2023-05-20T11:54:27.456Z,2.67
2023-05-20T11:56:55.689Z,2.43
2023-05-20T11:59:25.745Z,2.50
2023-05-20T12:01:53.785Z,2.53
2023-05-20T12:04:41.752Z,2.67
2023-05-20T12:07:10.294Z,2.40
2023-05-20T12:09:38.218Z,2.23
2023-05-20T12:12:06.638Z,2.50
2023-05-20T12:14:34.663Z,2.23
2023-05-20T12:17:02.811Z,2.67
2023-05-20T12:19:33.154Z,2.70
2023-05-20T12:22:03.665Z,2.47
2023-05-20T12:24:31.798Z,3.10
2023-05-20T12:26:59.763Z,2.50
2023-05-20T12:29:27.650Z,2.50
2023-05-20T12:31:55.532Z,3.00
2023-05-20T12:34:23.499Z,3.03
2023-05-20T12:36:52.887Z,2.70
2023-05-20T12:39:20.828Z,2.53
2023-05-20T12:41:48.759Z,3.00
2023-05-20T12:44:16.749Z,2.67
2023-05-20T12:46:44.841Z,2.50
2023-05-20T12:49:12.884Z,2.50
2023-05-20T12:51:40.768Z,2.40
2023-05-20T12:54:09.971Z,2.50
2023-05-20T12:56:37.909Z,3.33
2023-05-20T12:59:05.839Z,3.07
2023-05-20T13:01:33.943Z,2.63
2023-05-20T13:04:02.019Z,2.70
2023-05-20T13:06:29.950Z,3.20
2023-05-20T13:08:58.055Z,2.80
2023-05-20T13:11:27.404Z,3.60
2023-05-20T13:13:57.115Z,3.20
2023-05-20T13:16:25.207Z,2.90
2023-05-20T13:18:53.280Z,2.63
2023-05-20T13:21:21.216Z,2.73
2023-05-20T13:23:49.082Z,2.47
2023-05-20T13:26:18.710Z,3.00
2023-05-20T13:28:48.116Z,2.50
2023-05-20T13:31:16.186Z,3.00
2023-05-20T13:33:44.217Z,3.33
2023-05-20T13:36:12.164Z,3.07
2023-05-20T13:38:40.120Z,3.03
2023-05-20T13:41:08.125Z,3.03
2023-05-20T13:43:36.152Z,3.10
2023-05-20T13:46:05.663Z,2.83
2023-05-20T13:48:54.413Z,2.90
2023-05-20T13:51:22.353Z,2.70
2023-05-20T13:53:50.300Z,2.83
2023-05-20T13:56:18.479Z,2.13
2023-05-20T13:58:46.547Z,2.90
2023-05-20T14:01:15.981Z,2.63
2023-05-20T14:04:03.207Z,2.80
2023-05-20T14:06:31.937Z,3.10
2023-05-20T14:09:00.016Z,3.00
2023-05-20T14:11:27.994Z,2.70
2023-05-20T14:13:56.082Z,2.83
2023-05-20T14:16:25.657Z,2.80
2023-05-20T14:18:53.620Z,2.80
2023-05-20T14:21:21.527Z,3.33
2023-05-20T14:23:49.573Z,3.00
2023-05-20T14:26:17.544Z,3.10
2023-05-20T14:28:45.468Z,2.67
2023-05-20T14:31:13.461Z,2.93
2023-05-20T14:33:42.741Z,2.87
2023-05-20T14:36:11.276Z,3.10
2023-05-20T14:38:39.379Z,2.93
2023-05-20T14:41:07.319Z,3.00
2023-05-20T14:43:36.651Z,2.63
2023-05-20T14:46:05.366Z,2.20
2023-05-20T14:48:33.312Z,2.30
2023-05-20T14:51:02.588Z,2.03
2023-05-20T14:53:30.503Z,2.10
2023-05-20T14:55:58.594Z,2.27
2023-05-20T14:58:26.548Z,2.40
2023-05-20T15:00:54.750Z,2.63
2023-05-20T15:03:24.370Z,2.53
2023-05-20T15:05:52.469Z,2.77
2023-05-20T15:08:22.045Z,2.27
2023-05-20T15:10:50.377Z,2.20
2023-05-20T15:13:18.281Z,2.10
2023-05-20T15:15:46.245Z,2.20
2023-05-20T15:18:14.208Z,2.40
2023-05-20T15:20:42.582Z,2.20
2023-05-20T15:23:11.249Z,2.47
2023-05-20T15:25:40.497Z,2.50
2023-05-20T15:28:08.391Z,2.67
2023-05-20T15:30:36.536Z,2.30
2023-05-20T15:33:04.809Z,2.27
2023-05-20T15:35:32.899Z,2.13
2023-05-20T15:38:00.857Z,2.53
2023-05-20T15:40:29.089Z,2.47
2023-05-20T15:42:58.336Z,2.20
2023-05-20T15:45:26.279Z,2.43
2023-05-20T15:47:54.364Z,2.43
2023-05-20T15:50:23.463Z,2.37
2023-05-20T15:52:53.827Z,2.30
2023-05-20T15:55:23.172Z,2.00
2023-05-20T15:57:51.452Z,2.10
2023-05-20T16:00:21.774Z,2.23
2023-05-20T16:03:10.692Z,2.50
2023-05-20T16:05:38.936Z,2.10
2023-05-20T16:08:29.373Z,2.20
2023-05-20T16:10:57.347Z,2.30
2023-05-20T16:13:25.431Z,2.10
2023-05-20T16:15:57.511Z,2.40
2023-05-20T16:18:25.630Z,2.50
2023-05-20T16:20:53.630Z,2.30
2023-05-20T16:23:21.544Z,2.47
2023-05-20T16:25:49.495Z,2.10
2023-05-20T16:28:17.504Z,2.20
2023-05-20T16:30:45.488Z,2.50
2023-05-20T16:33:14.837Z,2.30
2023-05-20T16:35:42.712Z,2.20
2023-05-20T16:38:11.126Z,2.27
2023-05-20T16:40:39.017Z,2.10
2023-05-20T16:43:07.013Z,2.00
2023-05-20T16:45:35.123Z,1.93
2023-05-20T16:48:03.297Z,1.97
2023-05-20T16:50:32.920Z,2.30
2023-05-20T16:53:01.137Z,2.27
2023-05-20T16:55:29.044Z,2.10
2023-05-20T16:57:57.037Z,2.20
2023-05-20T17:00:25.374Z,1.87
2023-05-20T17:02:53.349Z,2.30
2023-05-20T17:05:21.330Z,2.03
2023-05-20T17:07:50.921Z,2.10
2023-05-20T17:10:18.976Z,2.03
2023-05-20T17:12:46.882Z,2.07
2023-05-20T17:15:14.862Z,1.93
2023-05-20T17:17:42.823Z,1.87
2023-05-20T17:20:30.633Z,1.80
2023-05-20T17:23:00.027Z,1.80
2023-05-20T17:25:27.996Z,2.10
2023-05-20T17:27:56.147Z,1.90
2023-05-20T17:30:24.125Z,2.03
2023-05-20T17:32:53.933Z,2.03
2023-05-20T17:35:25.522Z,1.90
2023-05-20T17:37:53.736Z,1.93
2023-05-20T17:40:23.067Z,2.00
2023-05-20T17:43:10.775Z,1.83
2023-05-20T17:45:38.675Z,1.77
2023-05-20T17:48:08.757Z,1.77
2023-05-20T17:50:38.869Z,1.93
2023-05-20T17:53:06.869Z,1.60
2023-05-20T17:55:36.949Z,2.10
2023-05-20T17:58:04.944Z,1.70
2023-05-20T18:00:34.297Z,2.00
2023-05-20T18:03:02.615Z,1.80
2023-05-20T18:05:30.734Z,2.00
2023-05-20T18:07:58.658Z,1.70
2023-05-20T18:10:26.594Z,1.70
2023-05-20T18:15:42.620Z,1.50
2023-05-20T18:18:11.311Z,1.70
2023-05-20T18:20:39.242Z,1.70
2023-05-20T18:23:07.326Z,1.80
2023-05-20T18:25:35.444Z,1.90
2023-05-20T18:28:24.972Z,1.63
2023-05-20T18:30:52.911Z,1.67
2023-05-20T18:33:20.969Z,1.60
2023-05-20T18:35:48.925Z,1.60
2023-05-20T18:38:16.833Z,1.70
2023-05-20T18:40:44.786Z,1.60
2023-05-20T18:43:12.727Z,1.70
2023-05-20T18:45:41.988Z,1.80
2023-05-20T18:48:10.219Z,1.87
2023-05-20T18:50:38.384Z,1.80
2023-05-20T18:53:06.399Z,1.77
2023-05-20T18:55:34.735Z,1.60
2023-05-20T18:58:02.639Z,2.10
2023-05-20T19:00:30.591Z,2.20
2023-05-20T19:02:59.800Z,1.90
2023-05-20T19:05:27.830Z,1.77
2023-05-20T19:07:55.775Z,1.50
2023-05-20T19:10:23.872Z,2.00
2023-05-20T19:12:51.784Z,1.90
2023-05-20T19:15:19.695Z,1.70
2023-05-20T19:17:47.665Z,1.90
2023-05-20T19:20:16.966Z,1.93
2023-05-20T19:22:44.868Z,1.97
2023-05-20T19:25:12.970Z,1.90
2023-05-20T19:27:41.272Z,1.83
2023-05-20T19:30:11.173Z,1.90
2023-05-20T19:32:39.491Z,1.90
2023-05-20T19:35:08.215Z,2.00
2023-05-20T19:37:37.588Z,1.70
2023-05-20T19:40:06.906Z,1.73
2023-05-20T19:42:34.944Z,1.87
2023-05-20T19:45:02.866Z,1.90
2023-05-20T19:47:31.068Z,2.23
2023-05-20T19:49:59.056Z,2.20
2023-05-20T19:52:27.122Z,2.20
2023-05-20T19:54:56.389Z,1.90
2023-05-20T19:57:24.489Z,2.00
2023-05-20T19:59:53.754Z,1.90
2023-05-20T20:02:21.887Z,1.70
2023-05-20T20:04:49.884Z,2.00
2023-05-20T20:07:17.970Z,2.40
2023-05-20T20:09:48.276Z,2.00
2023-05-20T20:12:17.565Z,2.07
2023-05-20T20:14:45.480Z,1.80
2023-05-20T20:17:15.594Z,2.23
2023-05-20T20:19:46.068Z,2.07
2023-05-20T20:22:14.042Z,2.17
2023-05-20T20:24:41.911Z,2.10
2023-05-20T20:27:10.545Z,2.20
2023-05-20T20:29:58.942Z,2.10
2023-05-20T20:32:27.344Z,2.17
2023-05-20T20:34:55.282Z,1.83
2023-05-20T20:37:23.224Z,1.83
2023-05-20T20:39:51.090Z,2.10
2023-05-20T20:42:37.658Z,2.00
2023-05-20T20:45:08.017Z,1.90
2023-05-20T20:47:38.552Z,2.00
2023-05-20T20:50:07.848Z,2.40
2023-05-20T20:52:36.320Z,2.07
2023-05-20T20:55:04.530Z,2.20
2023-05-20T20:57:35.222Z,2.33
2023-05-20T21:00:07.160Z,2.30
2023-05-20T21:02:36.478Z,2.50
2023-05-20T21:05:04.612Z,2.73
2023-05-20T21:07:32.527Z,2.60
2023-05-20T21:10:00.519Z,2.80
2023-05-20T21:12:28.420Z,2.73
2023-05-20T21:14:56.362Z,2.40
2023-05-20T21:17:24.269Z,2.30
2023-05-20T21:19:54.597Z,2.40
2023-05-20T21:22:22.619Z,2.33
2023-05-20T21:24:50.540Z,2.03
2023-05-20T21:27:18.488Z,2.70
2023-05-20T21:29:46.389Z,2.70
2023-05-20T21:32:14.374Z,2.60
2023-05-20T21:34:42.337Z,2.53
2023-05-20T21:37:11.631Z,2.30
2023-05-20T21:39:39.772Z,2.90
2023-05-20T21:42:07.890Z,2.97
2023-05-20T21:44:35.876Z,2.90
2023-05-20T21:47:03.840Z,2.57
2023-05-20T21:49:31.705Z,2.60
2023-05-20T21:51:59.609Z,2.87
2023-05-20T21:54:28.951Z,2.73
2023-05-20T21:56:56.861Z,2.93
2023-05-20T21:59:24.722Z,2.70
2023-05-20T22:01:52.674Z,2.90
2023-05-20T22:04:21.616Z,2.97
2023-05-20T22:06:51.010Z,2.87
2023-05-20T22:09:18.997Z,2.63
2023-05-20T22:11:48.272Z,3.20
2023-05-20T22:14:16.769Z,2.90
2023-05-20T22:16:46.434Z,2.77
2023-05-20T22:19:15.981Z,3.00
2023-05-20T22:27:24.073Z,3.20
2023-05-20T22:29:52.022Z,2.90
2023-05-20T22:32:40.269Z,3.07
2023-05-20T22:35:09.229Z,3.37
2023-05-20T22:37:37.248Z,3.43
2023-05-20T22:40:06.222Z,3.10
2023-05-20T22:42:35.551Z,3.37
2023-05-20T22:45:03.597Z,3.03
2023-05-20T22:47:31.599Z,3.30
2023-05-20T22:50:02.457Z,3.43
2023-05-20T22:52:30.728Z,3.87
2023-05-20T22:54:59.190Z,3.47
2023-05-20T22:57:27.418Z,3.60
2023-05-20T22:59:56.622Z,3.37
2023-05-20T23:02:24.552Z,4.00
2023-05-20T23:04:52.755Z,4.00
2023-05-20T23:07:21.777Z,3.60
2023-05-20T23:09:49.762Z,3.83
2023-05-20T23:12:17.811Z,3.93
2023-05-20T23:14:45.729Z,3.47
2023-05-20T23:17:15.046Z,3.80
2023-05-20T23:19:42.972Z,3.67
2023-05-20T23:22:10.933Z,3.70
2023-05-20T23:24:38.837Z,3.80
2023-05-20T23:27:07.092Z,3.77
2023-05-20T23:29:35.108Z,4.03
2023-05-20T23:32:03.006Z,4.07
2023-05-20T23:34:32.222Z,4.10
2023-05-20T23:37:00.218Z,4.20
2023-05-20T23:39:28.152Z,4.20
2023-05-20T23:41:56.096Z,4.20
2023-05-20T23:44:24.086Z,4.60
2023-05-20T23:46:52.061Z,4.53
2023-05-20T23:49:22.422Z,4.20
2023-05-20T23:51:52.790Z,4.90
2023-05-20T23:54:20.959Z,4.67
2023-05-20T23:56:48.898Z,4.90
2023-05-20T23:59:17.207Z,4.73
